createdAt,value
2023-03-16T00:01:49.902Z,54.73
2023-03-16T00:04:17.347Z,54.93
2023-03-16T00:06:44.736Z,54.77
2023-03-16T00:09:13.254Z,54.89
2023-03-16T00:11:42.183Z,54.82
2023-03-16T00:14:09.974Z,55.07
2023-03-16T00:16:37.490Z,55.17
2023-03-16T00:19:05.831Z,55.11
2023-03-16T00:21:35.177Z,54.74
2023-03-16T00:24:03.838Z,54.83
2023-03-16T00:26:31.824Z,54.98
2023-03-16T00:29:01.726Z,55.00
2023-03-16T00:31:29.294Z,55.13
2023-03-16T00:33:56.743Z,55.22
2023-03-16T00:36:24.165Z,55.11
2023-03-16T00:38:52.263Z,54.95
2023-03-16T00:41:19.691Z,55.30
2023-03-16T00:43:48.776Z,55.02
2023-03-16T00:46:17.921Z,55.18
2023-03-16T00:48:46.670Z,55.27
2023-03-16T00:51:15.289Z,55.23
2023-03-16T00:53:43.887Z,55.50
2023-03-16T00:56:11.562Z,55.36
2023-03-16T00:58:40.214Z,55.30
2023-03-16T01:01:08.947Z,55.14
2023-03-16T01:03:38.014Z,55.60
2023-03-16T01:06:06.338Z,55.49
2023-03-16T01:08:34.325Z,55.61
2023-03-16T01:11:03.786Z,55.53
2023-03-16T01:13:32.452Z,55.33
2023-03-16T01:15:59.966Z,55.52
2023-03-16T01:18:27.621Z,55.31
2023-03-16T01:20:56.467Z,55.37
2023-03-16T01:23:23.943Z,55.60
2023-03-16T01:25:53.961Z,55.74
2023-03-16T01:28:23.495Z,55.47
2023-03-16T01:30:53.953Z,55.53
2023-03-16T01:33:21.781Z,55.61
2023-03-16T01:35:53.493Z,55.50
2023-03-16T01:38:22.779Z,55.62
2023-03-16T01:40:51.568Z,55.85
2023-03-16T01:43:20.016Z,55.83
2023-03-16T01:46:18.066Z,55.71
2023-03-16T01:48:48.120Z,55.81
2023-03-16T01:51:17.066Z,55.78
2023-03-16T01:53:46.854Z,55.87
2023-03-16T01:56:18.494Z,55.75
2023-03-16T01:58:46.687Z,55.98
2023-03-16T02:01:14.909Z,55.66
2023-03-16T02:03:43.693Z,55.85
2023-03-16T02:06:12.881Z,55.83
2023-03-16T02:08:41.127Z,56.05
2023-03-16T02:11:10.730Z,55.87
2023-03-16T02:13:38.217Z,56.08
2023-03-16T02:16:07.253Z,55.94
2023-03-16T02:18:35.172Z,56.06
2023-03-16T02:21:07.906Z,55.95
2023-03-16T02:23:35.311Z,56.08
2023-03-16T02:26:08.931Z,56.11
2023-03-16T02:28:47.943Z,55.92
2023-03-16T02:31:18.041Z,56.04
2023-03-16T02:33:45.904Z,56.28
2023-03-16T02:36:14.940Z,56.18
2023-03-16T02:38:42.664Z,55.92
2023-03-16T02:41:12.585Z,56.16
2023-03-16T02:43:42.729Z,56.37
2023-03-16T02:46:10.878Z,56.28
2023-03-16T02:48:44.297Z,55.80
2023-03-16T02:51:12.017Z,56.32
2023-03-16T02:53:39.520Z,56.23
2023-03-16T02:56:07.210Z,56.06
2023-03-16T02:58:34.782Z,56.26
2023-03-16T03:01:02.413Z,56.25
2023-03-16T03:03:29.982Z,56.14
2023-03-16T03:05:58.851Z,56.44
2023-03-16T03:08:26.314Z,56.46
2023-03-16T03:10:53.852Z,56.29
2023-03-16T03:13:21.312Z,56.24
2023-03-16T03:15:48.809Z,56.30
2023-03-16T03:18:16.301Z,56.43
2023-03-16T03:20:43.757Z,56.06
2023-03-16T03:23:12.553Z,56.32
2023-03-16T03:25:40.008Z,56.51
2023-03-16T03:28:07.494Z,56.61
2023-03-16T03:30:35.007Z,56.42
2023-03-16T03:33:02.701Z,56.36
2023-03-16T03:35:30.280Z,56.49
2023-03-16T03:37:57.748Z,56.44
2023-03-16T03:40:26.756Z,56.44
2023-03-16T03:42:54.431Z,56.43
2023-03-16T03:45:21.845Z,56.18
2023-03-16T03:47:49.301Z,56.57
2023-03-16T03:50:16.829Z,56.46
2023-03-16T03:52:44.363Z,56.48
2023-03-16T03:55:11.797Z,56.55
2023-03-16T03:57:41.205Z,56.64
2023-03-16T04:00:11.354Z,56.64
2023-03-16T04:02:39.246Z,56.61
2023-03-16T04:05:07.379Z,56.69
2023-03-16T04:07:34.831Z,56.75
2023-03-16T04:10:02.344Z,56.63
2023-03-16T04:12:29.792Z,56.65
2023-03-16T04:14:58.594Z,56.90
2023-03-16T04:17:26.097Z,56.37
2023-03-16T04:19:53.542Z,56.81
2023-03-16T04:22:23.152Z,56.52
2023-03-16T04:24:52.263Z,56.42
2023-03-16T04:27:19.727Z,56.51
2023-03-16T04:29:47.187Z,56.47
2023-03-16T04:32:16.001Z,56.76
2023-03-16T04:34:43.734Z,56.78
2023-03-16T04:37:11.928Z,56.77
2023-03-16T04:39:39.388Z,56.42
2023-03-16T04:42:07.601Z,56.64
2023-03-16T04:44:35.048Z,56.58
2023-03-16T04:47:02.512Z,56.81
2023-03-16T04:49:31.325Z,57.02
2023-03-16T04:51:58.772Z,56.79
2023-03-16T04:54:26.172Z,56.70
2023-03-16T04:56:53.610Z,56.68
2023-03-16T04:59:21.052Z,56.75
2023-03-16T05:01:48.576Z,57.05
2023-03-16T05:04:19.460Z,56.67
2023-03-16T05:06:48.837Z,57.05
2023-03-16T05:09:16.342Z,56.80
2023-03-16T05:11:43.839Z,56.67
2023-03-16T05:14:11.311Z,56.82
2023-03-16T05:16:38.736Z,56.88
2023-03-16T05:19:06.196Z,56.87
2023-03-16T05:21:34.267Z,57.10
2023-03-16T05:24:03.138Z,57.03
2023-03-16T05:26:30.571Z,56.58
2023-03-16T05:28:58.540Z,56.88
2023-03-16T05:31:26.563Z,56.95
2023-03-16T05:33:54.154Z,56.89
2023-03-16T05:36:21.635Z,56.71
2023-03-16T05:38:49.126Z,56.86
2023-03-16T05:41:18.325Z,57.00
2023-03-16T05:43:45.766Z,56.85
2023-03-16T05:46:13.617Z,56.62
2023-03-16T05:48:41.097Z,57.01
2023-03-16T05:51:08.499Z,56.78
2023-03-16T05:53:36.254Z,57.03
2023-03-16T05:56:03.666Z,57.13
2023-03-16T05:58:33.928Z,56.96
2023-03-16T06:01:02.227Z,56.96
2023-03-16T06:03:29.937Z,57.10
2023-03-16T06:05:57.475Z,57.03
2023-03-16T06:08:24.953Z,56.91
2023-03-16T06:10:52.404Z,57.07
2023-03-16T06:13:19.944Z,57.30
2023-03-16T06:15:48.759Z,57.24
2023-03-16T06:18:16.255Z,56.84
2023-03-16T06:20:43.895Z,57.11
2023-03-16T06:23:11.285Z,57.19
2023-03-16T06:25:40.661Z,57.07
2023-03-16T06:28:08.695Z,56.67
2023-03-16T06:30:36.089Z,56.82
2023-03-16T06:33:05.125Z,57.07
2023-03-16T06:35:32.666Z,56.93
2023-03-16T06:38:00.253Z,56.83
2023-03-16T06:40:27.923Z,56.75
2023-03-16T06:42:55.526Z,56.98
2023-03-16T06:45:23.033Z,57.12
2023-03-16T06:47:50.468Z,56.78
2023-03-16T06:50:19.480Z,57.17
2023-03-16T06:52:46.928Z,57.22
2023-03-16T06:55:14.517Z,57.10
2023-03-16T06:57:42.731Z,57.14
2023-03-16T07:00:11.239Z,56.94
2023-03-16T07:02:40.428Z,57.22
2023-03-16T07:05:08.373Z,57.19
2023-03-16T07:07:37.138Z,57.37
2023-03-16T07:10:04.785Z,57.16
2023-03-16T07:12:32.455Z,57.16
2023-03-16T07:14:59.916Z,57.24
2023-03-16T07:17:27.336Z,56.84
2023-03-16T07:19:54.851Z,57.43
2023-03-16T07:22:22.966Z,57.38
2023-03-16T07:24:57.241Z,57.28
2023-03-16T07:27:24.656Z,57.26
2023-03-16T07:29:52.928Z,57.44
2023-03-16T07:32:20.641Z,57.18
2023-03-16T07:34:48.053Z,57.34
2023-03-16T07:37:17.148Z,57.44
2023-03-16T07:39:45.806Z,57.39
2023-03-16T07:42:14.625Z,57.09
2023-03-16T07:44:42.258Z,57.35
2023-03-16T07:47:11.641Z,57.18
2023-03-16T07:49:39.077Z,57.19
2023-03-16T07:52:06.645Z,57.36
2023-03-16T07:54:34.183Z,57.39
2023-03-16T07:57:01.631Z,57.15
2023-03-16T07:59:31.314Z,57.32
2023-03-16T08:01:58.875Z,57.37
2023-03-16T08:04:26.320Z,57.09
2023-03-16T08:06:59.709Z,57.27
2023-03-16T08:09:27.223Z,57.40
2023-03-16T08:11:54.898Z,57.28
2023-03-16T08:14:22.374Z,57.59
2023-03-16T08:16:51.585Z,57.13
2023-03-16T08:19:20.236Z,57.41
2023-03-16T08:22:00.714Z,57.44
2023-03-16T08:24:30.653Z,57.36
2023-03-16T08:26:58.473Z,57.32
2023-03-16T08:29:25.969Z,57.41
2023-03-16T08:31:56.292Z,57.57
2023-03-16T08:34:24.174Z,57.58
2023-03-16T08:36:51.669Z,57.61
2023-03-16T08:39:19.139Z,57.50
2023-03-16T08:41:48.238Z,57.56
2023-03-16T08:44:15.727Z,57.55
2023-03-16T08:46:43.402Z,57.63
2023-03-16T08:49:13.630Z,57.56
2023-03-16T08:51:41.751Z,57.65
2023-03-16T08:54:10.830Z,57.60
2023-03-16T08:56:38.270Z,57.56
2023-03-16T08:59:05.681Z,57.50
2023-03-16T09:01:34.008Z,57.67
2023-03-16T09:04:03.237Z,57.35
2023-03-16T09:06:32.279Z,57.33
2023-03-16T09:09:00.037Z,57.66
2023-03-16T09:11:30.492Z,57.52
2023-03-16T09:13:58.223Z,57.67
2023-03-16T09:16:25.979Z,57.68
2023-03-16T09:18:53.528Z,57.61
2023-03-16T09:21:21.037Z,57.86
2023-03-16T09:23:49.822Z,57.76
2023-03-16T09:26:17.273Z,57.63
2023-03-16T09:28:44.918Z,57.42
2023-03-16T09:31:16.591Z,57.59
2023-03-16T09:33:44.055Z,57.90
2023-03-16T09:36:12.399Z,57.80
2023-03-16T09:38:39.978Z,57.84
2023-03-16T09:41:10.777Z,57.90
2023-03-16T09:43:49.329Z,57.92
2023-03-16T09:46:21.724Z,57.64
2023-03-16T09:48:49.447Z,57.72
2023-03-16T09:51:20.928Z,57.86
2023-03-16T09:53:51.444Z,57.94
2023-03-16T09:56:24.751Z,58.03
2023-03-16T09:58:52.628Z,57.68
2023-03-16T10:01:27.315Z,57.66
2023-03-16T10:04:10.700Z,58.00
2023-03-16T10:06:42.738Z,57.71
2023-03-16T10:09:18.691Z,57.80
2023-03-16T10:11:48.230Z,58.06
2023-03-16T10:14:20.063Z,58.07
2023-03-16T10:16:48.925Z,58.05
2023-03-16T10:19:19.457Z,58.15
2023-03-16T10:21:48.186Z,57.91
2023-03-16T10:24:20.300Z,58.06
2023-03-16T10:26:51.876Z,58.01
2023-03-16T10:29:19.314Z,57.94
2023-03-16T10:31:47.445Z,57.74
2023-03-16T10:34:15.343Z,57.75
2023-03-16T10:36:44.993Z,57.99
2023-03-16T10:39:13.634Z,57.91
2023-03-16T10:41:43.577Z,58.00
2023-03-16T10:44:13.291Z,58.01
2023-03-16T10:46:41.676Z,58.11
2023-03-16T10:49:20.947Z,57.98
2023-03-16T10:51:48.390Z,58.08
2023-03-16T10:54:17.321Z,57.95
2023-03-16T10:56:46.054Z,58.15
2023-03-16T10:59:17.064Z,57.83
2023-03-16T11:01:50.027Z,58.02
2023-03-16T11:04:18.090Z,58.16
2023-03-16T11:06:50.325Z,58.12
2023-03-16T11:09:21.211Z,57.91
2023-03-16T11:11:49.612Z,58.15
2023-03-16T11:14:20.551Z,58.15
2023-03-16T11:16:51.068Z,57.94
2023-03-16T11:19:21.331Z,58.26
2023-03-16T11:21:54.840Z,58.06
2023-03-16T11:24:25.306Z,58.21
2023-03-16T11:26:55.637Z,58.14
2023-03-16T11:29:26.935Z,58.18
2023-03-16T11:31:55.593Z,58.10
2023-03-16T11:34:28.265Z,58.06
2023-03-16T11:36:56.639Z,58.13
2023-03-16T11:39:40.461Z,58.25
2023-03-16T11:42:32.064Z,58.10
2023-03-16T11:45:10.074Z,57.98
2023-03-16T11:47:53.981Z,58.23
2023-03-16T11:50:25.869Z,58.33
2023-03-16T11:52:58.317Z,58.19
2023-03-16T11:55:30.560Z,58.21
2023-03-16T11:58:04.337Z,58.32
2023-03-16T12:00:37.088Z,58.27
2023-03-16T12:03:24.863Z,58.31
2023-03-16T12:05:58.069Z,58.39
2023-03-16T12:08:30.584Z,58.24
2023-03-16T12:11:02.307Z,58.37
2023-03-16T12:13:34.630Z,58.23
2023-03-16T12:16:06.639Z,58.35
2023-03-16T12:18:37.635Z,58.55
2023-03-16T12:21:07.221Z,58.17
2023-03-16T12:23:37.699Z,58.40
2023-03-16T12:26:05.287Z,58.27
2023-03-16T12:28:33.386Z,58.28
2023-03-16T12:31:10.327Z,58.14
2023-03-16T12:33:52.870Z,58.38
2023-03-16T12:36:35.881Z,58.16
2023-03-16T12:39:06.602Z,58.39
2023-03-16T12:41:36.419Z,58.24
2023-03-16T12:44:12.455Z,58.23
2023-03-16T12:46:47.802Z,58.38
2023-03-16T12:49:16.087Z,58.22
2023-03-16T12:51:45.435Z,58.38
2023-03-16T12:54:20.262Z,58.54
2023-03-16T12:56:49.059Z,58.53
2023-03-16T12:59:17.920Z,58.15
2023-03-16T13:01:49.443Z,58.54
2023-03-16T13:04:19.188Z,58.28
2023-03-16T13:06:49.389Z,58.37
2023-03-16T13:09:19.078Z,58.50
2023-03-16T13:11:50.312Z,58.31
2023-03-16T13:14:31.357Z,58.29
2023-03-16T13:17:06.468Z,58.45
2023-03-16T13:19:37.699Z,58.52
2023-03-16T13:22:18.390Z,58.24
2023-03-16T13:24:51.728Z,58.71
2023-03-16T13:27:24.269Z,58.22
2023-03-16T13:29:56.387Z,58.32
2023-03-16T13:32:25.917Z,58.51
2023-03-16T13:34:54.366Z,58.40
2023-03-16T13:37:24.036Z,58.46
2023-03-16T13:39:55.539Z,58.57
2023-03-16T13:42:24.418Z,58.51
2023-03-16T13:44:54.055Z,58.36
2023-03-16T13:47:21.598Z,58.23
2023-03-16T13:49:51.659Z,58.54
2023-03-16T13:52:22.789Z,58.53
2023-03-16T13:54:51.337Z,58.48
2023-03-16T13:57:20.663Z,58.43
2023-03-16T13:59:48.335Z,58.60
2023-03-16T14:02:18.586Z,58.53
2023-03-16T14:04:47.016Z,58.50
2023-03-16T14:07:17.804Z,58.39
2023-03-16T14:09:46.614Z,58.58
2023-03-16T14:12:15.668Z,58.69
2023-03-16T14:14:43.491Z,58.58
2023-03-16T14:17:12.395Z,58.69
2023-03-16T14:19:44.329Z,58.66
2023-03-16T14:22:13.800Z,58.63
2023-03-16T14:24:43.105Z,58.76
2023-03-16T14:27:16.839Z,58.83
2023-03-16T14:29:44.702Z,58.76
2023-03-16T14:32:21.849Z,58.69
2023-03-16T14:34:50.276Z,58.72
2023-03-16T14:37:19.219Z,58.63
2023-03-16T14:39:59.121Z,58.45
2023-03-16T14:42:28.696Z,58.51
2023-03-16T14:44:57.218Z,58.75
2023-03-16T14:47:26.063Z,58.64
2023-03-16T14:49:53.694Z,58.38
2023-03-16T14:52:24.921Z,58.76
2023-03-16T14:54:55.163Z,58.52
2023-03-16T14:57:22.893Z,58.57
2023-03-16T14:59:50.413Z,58.46
2023-03-16T15:02:20.307Z,58.34
2023-03-16T15:04:48.979Z,58.53
2023-03-16T15:07:22.386Z,58.66
2023-03-16T15:09:51.597Z,58.75
2023-03-16T15:12:21.046Z,58.76
2023-03-16T15:15:06.593Z,58.38
2023-03-16T15:17:34.167Z,58.55
2023-03-16T15:20:01.885Z,58.78
2023-03-16T15:22:30.816Z,58.72
2023-03-16T15:25:00.018Z,58.71
2023-03-16T15:27:32.854Z,58.66
2023-03-16T15:30:00.846Z,58.52
2023-03-16T15:32:28.393Z,58.71
2023-03-16T15:34:55.833Z,58.89
2023-03-16T15:37:27.500Z,58.82
2023-03-16T15:39:55.115Z,58.48
2023-03-16T15:42:22.710Z,58.75
2023-03-16T15:44:51.524Z,58.78
2023-03-16T15:47:19.263Z,58.81
2023-03-16T15:49:48.060Z,58.55
2023-03-16T15:52:22.612Z,58.76
2023-03-16T15:54:50.052Z,58.74
2023-03-16T15:57:18.283Z,58.66
2023-03-16T15:59:47.457Z,58.59
2023-03-16T16:02:25.411Z,58.44
2023-03-16T16:04:52.902Z,58.52
2023-03-16T16:07:20.389Z,58.87
2023-03-16T16:09:47.806Z,58.52
2023-03-16T16:12:16.615Z,58.73
2023-03-16T16:14:44.126Z,58.43
2023-03-16T16:17:11.996Z,58.65
2023-03-16T16:19:40.827Z,58.53
2023-03-16T16:22:12.877Z,58.82
2023-03-16T16:24:40.639Z,58.82
2023-03-16T16:27:10.859Z,58.57
2023-03-16T16:29:38.295Z,58.93
2023-03-16T16:32:17.429Z,58.84
2023-03-16T16:35:01.726Z,58.74
2023-03-16T16:37:31.311Z,58.79
2023-03-16T16:39:58.830Z,58.71
2023-03-16T16:42:26.511Z,58.75
2023-03-16T16:44:54.698Z,58.83
2023-03-16T16:47:22.441Z,58.66
2023-03-16T16:49:52.014Z,58.73
2023-03-16T16:52:19.812Z,58.59
2023-03-16T16:54:47.289Z,58.77
2023-03-16T16:57:18.890Z,58.89
2023-03-16T16:59:47.980Z,58.57
2023-03-16T17:02:22.173Z,58.66
2023-03-16T17:04:52.178Z,58.96
2023-03-16T17:07:19.687Z,58.92
2023-03-16T17:09:47.174Z,58.87
2023-03-16T17:12:17.373Z,59.01
2023-03-16T17:14:44.956Z,58.78
2023-03-16T17:17:15.020Z,58.91
2023-03-16T17:19:46.436Z,58.95
2023-03-16T17:22:21.132Z,58.91
2023-03-16T17:24:49.506Z,58.65
2023-03-16T17:27:18.640Z,58.65
2023-03-16T17:29:46.073Z,58.88
2023-03-16T17:32:18.011Z,58.94
2023-03-16T17:34:45.515Z,58.56
2023-03-16T17:37:14.049Z,58.98
2023-03-16T17:39:42.921Z,58.89
2023-03-16T17:42:12.870Z,58.86
2023-03-16T17:44:41.909Z,58.95
2023-03-16T17:47:14.254Z,58.62
2023-03-16T17:49:41.720Z,58.73
2023-03-16T17:52:13.896Z,58.86
2023-03-16T17:54:42.817Z,58.94
2023-03-16T17:57:16.337Z,58.76
2023-03-16T17:59:43.876Z,59.07
2023-03-16T18:02:24.530Z,59.15
2023-03-16T18:04:52.167Z,58.88
2023-03-16T18:07:19.613Z,58.83
2023-03-16T18:09:48.395Z,58.89
2023-03-16T18:12:16.652Z,58.80
2023-03-16T18:14:44.095Z,59.02
2023-03-16T18:17:17.392Z,58.62
2023-03-16T18:19:45.466Z,58.99
2023-03-16T18:22:19.301Z,59.09
2023-03-16T18:24:48.574Z,59.00
2023-03-16T18:27:16.530Z,58.90
2023-03-16T18:29:44.456Z,59.01
2023-03-16T18:32:17.840Z,59.06
2023-03-16T18:34:46.026Z,59.03
2023-03-16T18:37:17.172Z,59.03
2023-03-16T18:39:44.648Z,58.86
2023-03-16T18:42:19.041Z,58.90
2023-03-16T18:44:46.521Z,58.70
2023-03-16T18:47:18.364Z,58.87
2023-03-16T18:49:51.224Z,58.71
2023-03-16T18:52:19.918Z,59.00
2023-03-16T18:54:48.157Z,58.77
2023-03-16T18:57:18.704Z,58.86
2023-03-16T18:59:46.544Z,59.04
2023-03-16T19:02:25.904Z,58.75
2023-03-16T19:04:53.468Z,59.07
2023-03-16T19:07:23.532Z,59.01
2023-03-16T19:09:51.046Z,59.16
2023-03-16T19:12:20.870Z,59.04
2023-03-16T19:14:48.347Z,58.85
2023-03-16T19:17:16.405Z,59.06
2023-03-16T19:19:43.871Z,58.95
2023-03-16T19:22:16.377Z,59.09
2023-03-16T19:24:46.854Z,58.92
2023-03-16T19:27:18.132Z,59.04
2023-03-16T19:29:46.969Z,58.97
2023-03-16T19:32:17.242Z,58.82
2023-03-16T19:34:44.763Z,59.07
2023-03-16T19:37:13.367Z,58.92
2023-03-16T19:39:40.845Z,59.04
2023-03-16T19:42:15.906Z,59.10
2023-03-16T19:44:44.210Z,58.77
2023-03-16T19:47:22.637Z,59.11
2023-03-16T19:49:50.116Z,58.96
2023-03-16T19:52:17.600Z,59.04
2023-03-16T19:54:45.060Z,58.84
2023-03-16T19:57:14.178Z,59.23
2023-03-16T19:59:42.381Z,59.22
2023-03-16T20:02:23.088Z,59.01
2023-03-16T20:04:50.597Z,59.20
2023-03-16T20:07:18.062Z,59.11
2023-03-16T20:09:45.930Z,59.36
2023-03-16T20:12:21.180Z,59.12
2023-03-16T20:14:48.747Z,59.10
2023-03-16T20:17:21.078Z,59.21
2023-03-16T20:19:50.126Z,59.23
2023-03-16T20:22:18.377Z,59.25
2023-03-16T20:24:46.622Z,59.40
2023-03-16T20:27:14.154Z,59.41
2023-03-16T20:29:41.874Z,59.16
2023-03-16T20:32:15.128Z,59.28
2023-03-16T20:34:42.621Z,59.29
2023-03-16T20:37:20.802Z,59.18
2023-03-16T20:39:49.115Z,58.94
2023-03-16T20:42:17.716Z,59.10
2023-03-16T20:44:45.372Z,59.20
2023-03-16T20:47:14.294Z,58.88
2023-03-16T20:49:41.745Z,59.35
2023-03-16T20:52:16.321Z,59.29
2023-03-16T20:54:43.837Z,59.19
2023-03-16T20:57:16.633Z,59.05
2023-03-16T20:59:46.810Z,59.20
2023-03-16T21:02:25.461Z,59.08
2023-03-16T21:04:53.073Z,58.94
2023-03-16T21:07:21.894Z,59.28
2023-03-16T21:09:50.316Z,59.19
2023-03-16T21:12:22.088Z,59.03
2023-03-16T21:14:49.552Z,59.28
2023-03-16T21:17:24.045Z,59.14
2023-03-16T21:19:52.763Z,59.25
2023-03-16T21:22:24.349Z,59.13
2023-03-16T21:24:52.430Z,59.55
2023-03-16T21:27:23.040Z,59.13
2023-03-16T21:29:50.797Z,59.03
2023-03-16T21:32:20.958Z,59.17
2023-03-16T21:34:49.398Z,59.37
2023-03-16T21:37:17.967Z,59.13
2023-03-16T21:39:47.872Z,59.29
2023-03-16T21:42:17.156Z,59.44
2023-03-16T21:44:44.658Z,59.37
2023-03-16T21:47:20.372Z,59.24
2023-03-16T21:49:47.813Z,59.07
2023-03-16T21:52:22.136Z,59.29
2023-03-16T21:54:50.950Z,59.30
2023-03-16T21:57:18.425Z,59.16
2023-03-16T21:59:45.896Z,59.05
2023-03-16T22:02:18.678Z,59.21
2023-03-16T22:04:46.365Z,59.16
2023-03-16T22:07:14.106Z,59.28
2023-03-16T22:09:41.785Z,59.33
2023-03-16T22:12:12.028Z,59.38
2023-03-16T22:14:39.724Z,59.58
2023-03-16T22:17:07.492Z,59.37
2023-03-16T22:19:35.521Z,59.33
2023-03-16T22:22:03.083Z,59.49
2023-03-16T22:24:34.893Z,59.40
2023-03-16T22:27:02.556Z,59.29
2023-03-16T22:29:33.377Z,59.12
2023-03-16T22:32:03.080Z,59.36
2023-03-16T22:34:32.182Z,59.35
2023-03-16T22:37:00.851Z,59.23
2023-03-16T22:39:37.631Z,59.50
2023-03-16T22:42:17.793Z,59.35
2023-03-16T22:44:46.573Z,59.38
2023-03-16T22:47:21.007Z,59.31
2023-03-16T22:49:48.429Z,59.37
2023-03-16T22:52:16.090Z,59.32
2023-03-16T22:54:43.757Z,59.51
2023-03-16T22:57:13.758Z,59.41
2023-03-16T22:59:41.477Z,59.38
2023-03-16T23:02:13.975Z,59.49
2023-03-16T23:04:41.441Z,59.20
2023-03-16T23:07:11.789Z,59.35
2023-03-16T23:09:39.460Z,59.38
2023-03-16T23:12:12.002Z,59.66
2023-03-16T23:14:39.538Z,59.13
2023-03-16T23:17:13.458Z,59.42
2023-03-16T23:19:42.571Z,59.39
2023-03-16T23:22:11.328Z,59.23
2023-03-16T23:24:39.090Z,59.42
2023-03-16T23:27:08.210Z,59.44
2023-03-16T23:29:35.705Z,59.35
2023-03-16T23:32:04.359Z,59.39
2023-03-16T23:34:32.076Z,59.89
2023-03-16T23:37:00.872Z,59.71
2023-03-16T23:39:29.046Z,59.65
2023-03-16T23:41:57.260Z,59.53
2023-03-16T23:44:27.031Z,59.73
2023-03-16T23:46:54.515Z,59.34
2023-03-16T23:49:23.166Z,59.30
2023-03-16T23:51:51.276Z,59.39
2023-03-16T23:54:21.050Z,59.44
2023-03-16T23:56:48.639Z,59.55
2023-03-16T23:59:16.379Z,59.46
